Airfield :
LOGIN :

Register | Disclaimer

   EN    FR    IT 

 










Legend :    VFR   Marginal VFR   IFR   Intensive IFR   Very Intensive IFR
Visi :
Ceiling :
>= 8 km
>= 3000ft
5 to 8 km
1000 to 3000 ft
1500m to 5 km
500 to 1000 ft
800 to 1500m
200 to 500 ft
< 800m
< 200 ft
Symbols :   Thunderstorms  Fog  Heavy snow  Heavy precipitations  Wind > 20 kt
SIGMETs :     Misc.  Thunderstorms  Icing  Turbulence  Mountain Waves  Volcanic Ashes






- Airport Elevation : 580 ft


LFOA - Avord

CURRENT METAR :
  • 072000Z AUTO VRB02KT CAVOK 14/13 Q1021

EXPIRED METARs :
  • 071930Z AUTO 00000KT CAVOK 15/13 Q1021
  • 071900Z AUTO 33004KT CAVOK 15/13 Q1021
  • 071830Z AUTO 32004KT CAVOK 16/13 Q1021
  • 071800Z AUTO 31003KT CAVOK 16/14 Q1021
  • 071730Z AUTO 30002KT CAVOK 17/14 Q1021
  • 071700Z AUTO 29003KT CAVOK 19/14 Q1021

TAF TAF LFOA
Valid from the 07 at 15:00 until the 08 at 15:00 UTC


071400Z 0715/0815 27005KT 9999 BKN025 TX21/0715Z TN07/0805Z
TEMPO 0800/0808 2000 BR
PROB40
TEMPO 0801/0808 0200 FG BKN002
BECMG 0809/0812 03005KT



MET'MAP, your aeronautical weather chart ! - Copyright ORBIFLY December 2007 - Disclaimer

ORBIFLY MET'MAP TEAM :

Programming & Development : Alexandra Zaïnal
Original concept : Baudouin d'Aumeries
Technical & hardware support : Manuel Goepfert
Assistance : Marc-Olivier Méhu




SOURCES & CREDITS :

   NOAA